Time;durP1;ratioP1;P1;durP2;ratioP2;P2;SDS_P1;SDS_P2;PMS_P1;PMS_P2;Temp;Humidity;BMP_temperature;BMP_pressure;BME280_temperature;BME280_humidity;BME280_pressure;Samples;Min_cycle;Max_cycle;Signal;HPM_P1;HPM_P2
2022/02/24 00:01:42;;;;;;;6.23;2.00;;;18.60;46.10;;;;;;5003724;28;20472;-81
2022/02/24 00:04:10;;;;;;;4.57;2.13;;;18.60;45.30;;;;;;5002522;28;20440;-80
2022/02/24 00:06:38;;;;;;;2.77;1.83;;;18.60;45.40;;;;;;5003273;28;20472;-81
2022/02/24 00:09:07;;;;;;;4.00;1.90;;;18.60;45.30;;;;;;5005359;28;20444;-80
2022/02/24 00:11:35;;;;;;;5.33;1.97;;;18.60;45.40;;;;;;5003387;28;20480;-80
2022/02/24 00:14:03;;;;;;;4.83;1.80;;;18.50;45.30;;;;;;5004853;28;20434;-81
2022/02/24 00:16:32;;;;;;;3.67;2.00;;;18.60;45.40;;;;;;5003337;28;20509;-82
2022/02/24 00:19:00;;;;;;;5.03;1.97;;;18.50;45.30;;;;;;4999972;28;20448;-81
2022/02/24 00:21:28;;;;;;;3.90;1.83;;;18.50;45.30;;;;;;5003863;28;20548;-81
2022/02/24 00:23:56;;;;;;;2.43;1.80;;;18.50;45.30;;;;;;5007085;28;20429;-81
2022/02/24 00:26:24;;;;;;;3.10;2.20;;;18.50;45.30;;;;;;5005587;28;20532;-82
2022/02/24 00:28:52;;;;;;;2.87;1.97;;;18.50;45.40;;;;;;5000501;28;20457;-80
2022/02/24 00:31:22;;;;;;;3.40;2.10;;;18.50;45.40;;;;;;4998141;28;20468;-81
2022/02/24 00:33:51;;;;;;;2.87;1.90;;;18.50;45.50;;;;;;4998389;28;20433;-81
2022/02/24 00:36:19;;;;;;;3.83;2.00;;;18.50;45.50;;;;;;5003319;28;20473;-82
2022/02/24 00:38:47;;;;;;;1.90;1.70;;;18.50;45.50;;;;;;5006886;28;20456;-81
2022/02/24 00:41:15;;;;;;;4.03;1.90;;;18.50;45.50;;;;;;5008558;28;20434;-81
2022/02/24 00:43:43;;;;;;;2.23;1.70;;;18.50;45.60;;;;;;5009532;28;20465;-81
2022/02/24 00:46:12;;;;;;;2.40;1.90;;;18.50;45.60;;;;;;5001931;28;20511;-82
2022/02/24 00:48:40;;;;;;;4.97;2.17;;;18.40;45.50;;;;;;5000852;28;20533;-80
2022/02/24 00:51:09;;;;;;;4.40;1.93;;;18.40;45.60;;;;;;5000291;28;20448;-82
2022/02/24 00:53:41;;;;;;;5.80;1.93;;;18.40;45.60;;;;;;5003892;28;20437;-81
2022/02/24 00:56:09;;;;;;;6.70;2.40;;;18.40;45.60;;;;;;5005790;28;20505;-81
2022/02/24 00:58:38;;;;;;;4.90;2.20;;;18.40;45.60;;;;;;5007607;28;20437;-82
2022/02/24 01:01:05;;;;;;;2.70;1.83;;;18.40;45.70;;;;;;5008319;28;20476;-81
2022/02/24 01:03:34;;;;;;;4.03;2.00;;;18.40;45.60;;;;;;5003858;28;20444;-82
2022/02/24 01:06:02;;;;;;;3.23;2.10;;;18.40;45.70;;;;;;5006031;28;20488;-81
2022/02/24 01:08:31;;;;;;;2.03;1.83;;;18.40;45.80;;;;;;5006834;28;20448;-83
2022/02/24 01:10:59;;;;;;;5.23;2.27;;;18.40;45.70;;;;;;5008045;28;20438;-82
2022/02/24 01:13:27;;;;;;;4.97;2.07;;;18.30;45.60;;;;;;5008209;28;20441;-82
2022/02/24 01:15:55;;;;;;;2.67;2.03;;;18.30;45.60;;;;;;5006292;28;20484;-82
2022/02/24 01:18:23;;;;;;;5.57;2.30;;;18.40;45.90;;;;;;5006934;28;20425;-82
2022/02/24 01:20:51;;;;;;;3.53;2.27;;;18.30;45.70;;;;;;5006371;28;20437;-82
2022/02/24 01:23:21;;;;;;;4.30;2.07;;;18.30;45.60;;;;;;5011071;28;20436;-82
2022/02/24 01:25:50;;;;;;;3.27;2.00;;;18.30;45.80;;;;;;5011559;28;20457;-82
2022/02/24 01:28:18;;;;;;;6.00;2.27;;;18.30;45.80;;;;;;5009352;28;20424;-82
2022/02/24 01:30:46;;;;;;;5.23;2.17;;;18.20;45.80;;;;;;5002433;28;20499;-82
2022/02/24 01:33:14;;;;;;;3.83;2.23;;;18.30;46.00;;;;;;5005387;28;20437;-82
2022/02/24 01:35:42;;;;;;;2.67;2.33;;;18.30;45.80;;;;;;5001576;28;20480;-82
2022/02/24 01:38:10;;;;;;;5.07;2.30;;;18.30;45.90;;;;;;5004250;28;20457;-82
2022/02/24 01:40:38;;;;;;;4.87;2.00;;;18.30;45.90;;;;;;5004294;28;20473;-82
2022/02/24 01:43:07;;;;;;;2.73;2.23;;;18.30;45.90;;;;;;5005808;28;20453;-82
2022/02/24 01:45:35;;;;;;;4.17;2.17;;;18.30;45.80;;;;;;5005938;28;20453;-81
2022/02/24 01:48:03;;;;;;;4.13;2.10;;;18.30;45.90;;;;;;5005303;28;20511;-82
2022/02/24 01:50:31;;;;;;;3.10;2.17;;;18.30;45.90;;;;;;5005118;28;20892;-82
2022/02/24 01:52:59;;;;;;;3.70;2.20;;;18.30;45.80;;;;;;5006810;28;20430;-81
2022/02/24 01:55:30;;;;;;;2.10;1.90;;;18.30;46.00;;;;;;5002505;28;20484;-82
2022/02/24 01:57:58;;;;;;;2.40;1.60;;;18.30;45.90;;;;;;5002783;28;20446;-84
2022/02/24 02:00:27;;;;;;;5.43;2.00;;;18.20;45.90;;;;;;5003135;28;20485;-83
2022/02/24 02:02:55;;;;;;;4.70;2.10;;;18.30;45.80;;;;;;5001062;28;20448;-83
2022/02/24 02:05:23;;;;;;;2.40;2.13;;;18.20;45.70;;;;;;4998878;28;20487;-84
2022/02/24 02:07:51;;;;;;;2.93;2.10;;;18.20;45.70;;;;;;4999277;28;20464;-82
2022/02/24 02:10:18;;;;;;;4.40;2.13;;;18.20;45.60;;;;;;4998852;28;20437;-84
2022/02/24 02:12:50;;;;;;;3.60;2.30;;;18.20;45.70;;;;;;4998557;28;20473;-83
2022/02/24 02:15:18;;;;;;;5.43;2.07;;;18.20;45.70;;;;;;4999660;28;20520;-83
2022/02/24 02:17:48;;;;;;;3.07;2.10;;;18.20;45.70;;;;;;4999879;28;20508;-83
2022/02/24 02:20:16;;;;;;;2.87;2.17;;;18.10;45.40;;;;;;4998031;28;20433;-84
2022/02/24 02:22:46;;;;;;;3.90;2.37;;;18.10;45.50;;;;;;4998241;28;20449;-84
2022/02/24 02:25:19;;;;;;;5.77;2.00;;;18.10;45.50;;;;;;4998058;28;20480;-84
2022/02/24 02:27:48;;;;;;;4.73;2.10;;;18.10;45.40;;;;;;5007840;28;20449;-82
2022/02/24 02:30:16;;;;;;;8.20;2.10;;;18.10;45.60;;;;;;5010512;28;20437;-81
2022/02/24 02:32:44;;;;;;;2.87;1.97;;;18.10;45.50;;;;;;4994676;28;20453;-81
2022/02/24 02:35:12;;;;;;;5.07;2.47;;;18.10;46.20;;;;;;4994733;28;20445;-82
2022/02/24 02:37:40;;;;;;;3.67;2.23;;;18.10;45.50;;;;;;4990449;28;20474;-81
2022/02/24 02:40:12;;;;;;;3.33;1.80;;;18.10;45.70;;;;;;4991192;28;20434;-81
2022/02/24 02:42:42;;;;;;;3.80;1.63;;;18.10;45.60;;;;;;4996441;28;20445;-82
2022/02/24 02:45:10;;;;;;;2.60;1.90;;;18.00;45.60;;;;;;5010257;28;20504;-82
2022/02/24 02:47:38;;;;;;;2.63;2.00;;;18.10;45.50;;;;;;5008678;28;20462;-81
2022/02/24 02:50:07;;;;;;;3.50;2.37;;;18.10;45.60;;;;;;5008625;28;20448;-81
2022/02/24 02:52:41;;;;;;;3.20;2.00;;;18.00;45.50;;;;;;5010221;28;20463;-82
2022/02/24 02:55:11;;;;;;;3.10;1.83;;;18.10;45.60;;;;;;5008939;28;20508;-83
2022/02/24 02:57:39;;;;;;;1.80;1.60;;;18.00;45.40;;;;;;4990083;28;20478;-81
2022/02/24 03:00:09;;;;;;;3.40;1.93;;;18.00;45.40;;;;;;4994514;28;20448;-84
2022/02/24 03:02:37;;;;;;;2.23;1.63;;;18.00;45.50;;;;;;4999839;28;20449;-83
2022/02/24 03:05:06;;;;;;;3.73;1.87;;;18.00;45.40;;;;;;5009695;28;20466;-81
2022/02/24 03:07:34;;;;;;;2.57;2.03;;;18.00;45.60;;;;;;5009557;28;20445;-81
2022/02/24 03:10:02;;;;;;;6.00;2.10;;;18.00;45.50;;;;;;5009972;28;20434;-81
2022/02/24 03:12:35;;;;;;;2.93;2.10;;;18.00;45.50;;;;;;5009538;28;20430;-80
2022/02/24 03:15:03;;;;;;;5.20;1.87;;;18.00;45.50;;;;;;5009366;28;20548;-82
2022/02/24 03:17:31;;;;;;;4.63;2.10;;;17.90;45.10;;;;;;5009130;28;20468;-83
2022/02/24 03:19:59;;;;;;;4.10;2.17;;;18.00;45.30;;;;;;5005872;28;20473;-83
2022/02/24 03:22:26;;;;;;;4.23;2.03;;;17.90;45.10;;;;;;5006880;28;20445;-81
2022/02/24 03:24:54;;;;;;;3.67;1.70;;;17.90;45.10;;;;;;5007548;28;20472;-81
2022/02/24 03:27:22;;;;;;;2.60;2.10;;;17.90;45.00;;;;;;5007797;28;20444;-81
2022/02/24 03:29:51;;;;;;;3.87;1.90;;;17.90;45.00;;;;;;5009276;28;20446;-81
2022/02/24 03:32:19;;;;;;;4.27;1.90;;;17.90;45.10;;;;;;5009261;28;20453;-81
2022/02/24 03:34:48;;;;;;;2.63;1.70;;;17.90;45.00;;;;;;5008531;28;20469;-82
2022/02/24 03:37:17;;;;;;;3.27;2.00;;;17.90;44.90;;;;;;5003335;28;20484;-81
2022/02/24 03:39:45;;;;;;;2.00;1.80;;;17.90;44.80;;;;;;5009590;28;20464;-81
2022/02/24 03:42:13;;;;;;;4.30;1.80;;;17.90;44.90;;;;;;5009640;28;20807;-81
2022/02/24 03:44:41;;;;;;;5.17;2.00;;;17.90;44.80;;;;;;5009339;28;20445;-81
2022/02/24 03:47:10;;;;;;;2.17;1.83;;;17.90;44.80;;;;;;5010523;28;20425;-81
2022/02/24 03:49:45;;;;;;;3.37;1.83;;;17.80;44.60;;;;;;5009455;28;20440;-80
2022/02/24 03:52:13;;;;;;;1.60;1.50;;;17.80;44.80;;;;;;5008816;28;20486;-81
2022/02/24 03:54:41;;;;;;;4.10;1.70;;;17.80;44.80;;;;;;5008644;28;20481;-80
2022/02/24 03:57:09;;;;;;;4.60;1.83;;;17.90;44.70;;;;;;5009977;28;20535;-81
2022/02/24 03:59:37;;;;;;;2.33;1.83;;;17.80;44.60;;;;;;5007955;28;20442;-80
2022/02/24 04:02:05;;;;;;;3.90;1.87;;;17.80;44.50;;;;;;5009035;28;20456;-81
2022/02/24 04:04:35;;;;;;;3.70;2.00;;;17.80;45.10;;;;;;5009216;28;20476;-81
2022/02/24 04:07:04;;;;;;;3.40;1.90;;;17.80;44.50;;;;;;5008028;28;20452;-81
2022/02/24 04:09:32;;;;;;;2.80;1.63;;;17.80;44.50;;;;;;5008769;28;20450;-82
2022/02/24 04:12:00;;;;;;;4.70;2.23;;;17.80;44.70;;;;;;5005877;28;20465;-81
2022/02/24 04:14:28;;;;;;;2.80;1.70;;;17.80;44.50;;;;;;5008575;28;20445;-83
2022/02/24 04:16:59;;;;;;;4.23;1.97;;;17.70;44.60;;;;;;5003039;28;20492;-81
2022/02/24 04:19:26;;;;;;;5.03;1.97;;;17.80;44.60;;;;;;5005466;28;20449;-83
2022/02/24 04:21:56;;;;;;;3.77;1.70;;;17.80;44.70;;;;;;5004922;28;20452;-81
2022/02/24 04:24:24;;;;;;;2.90;1.83;;;17.80;44.70;;;;;;5004020;28;20449;-81
2022/02/24 04:26:52;;;;;;;4.93;1.73;;;17.70;44.50;;;;;;5002333;28;20464;-81
2022/02/24 04:29:20;;;;;;;4.27;2.10;;;17.70;44.50;;;;;;5003471;28;20480;-81
2022/02/24 04:31:47;;;;;;;10.50;2.30;;;17.70;44.60;;;;;;5003540;28;20476;-80
2022/02/24 04:34:16;;;;;;;6.10;2.07;;;17.70;44.50;;;;;;5007149;28;20439;-81
2022/02/24 04:36:43;;;;;;;5.30;2.33;;;17.70;44.50;;;;;;5006871;28;20457;-81
2022/02/24 04:39:14;;;;;;;4.97;1.90;;;17.70;44.50;;;;;;5008085;28;20448;-81
2022/02/24 04:41:41;;;;;;;6.90;1.90;;;17.70;44.40;;;;;;5007823;28;20441;-81
2022/02/24 04:44:10;;;;;;;6.10;2.10;;;17.70;44.40;;;;;;5006291;28;21015;-83
2022/02/24 04:46:38;;;;;;;2.17;1.90;;;17.70;44.40;;;;;;5008439;28;20449;-81
2022/02/24 04:49:06;;;;;;;2.80;1.73;;;17.60;44.40;;;;;;5007978;28;20783;-82
2022/02/24 04:51:34;;;;;;;4.00;2.00;;;17.70;44.60;;;;;;5003975;28;20440;-83
2022/02/24 04:54:01;;;;;;;5.07;2.00;;;17.70;44.70;;;;;;5003277;28;20468;-82
2022/02/24 04:56:31;;;;;;;5.60;2.40;;;17.60;44.50;;;;;;5004375;28;21042;-82
2022/02/24 04:58:59;;;;;;;5.43;2.37;;;17.60;44.50;;;;;;5003443;28;20504;-81
2022/02/24 05:01:28;;;;;;;2.43;1.93;;;17.60;44.40;;;;;;5002916;28;20491;-81
2022/02/24 05:03:57;;;;;;;2.90;2.03;;;17.60;45.10;;;;;;5004794;28;20437;-82
2022/02/24 05:06:24;;;;;;;3.77;2.33;;;17.60;44.40;;;;;;5008714;28;20465;-82
2022/02/24 05:08:52;;;;;;;5.57;2.40;;;17.60;44.60;;;;;;5009245;28;20433;-83
2022/02/24 05:11:21;;;;;;;4.23;2.43;;;17.60;44.50;;;;;;5009051;28;20460;-83
2022/02/24 05:13:50;;;;;;;7.27;2.73;;;17.60;44.40;;;;;;5006467;28;20453;-82
2022/02/24 05:16:18;;;;;;;4.53;2.73;;;17.60;44.60;;;;;;5003425;28;20469;-82
2022/02/24 05:18:46;;;;;;;5.20;2.70;;;17.60;44.50;;;;;;5002836;28;21023;-83
2022/02/24 05:21:14;;;;;;;3.27;2.40;;;17.60;44.40;;;;;;5003381;28;20511;-82
2022/02/24 05:23:42;;;;;;;5.73;2.80;;;17.50;44.40;;;;;;5001463;28;20456;-82
2022/02/24 05:26:10;;;;;;;7.47;3.10;;;17.60;44.60;;;;;;5003542;28;20504;-82
2022/02/24 05:28:39;;;;;;;6.73;2.80;;;17.60;44.60;;;;;;5004901;28;20433;-81
2022/02/24 05:31:08;;;;;;;6.73;2.47;;;17.60;44.80;;;;;;5004326;28;20458;-82
2022/02/24 05:33:36;;;;;;;4.30;2.43;;;17.60;44.70;;;;;;5004955;28;20464;-82
2022/02/24 05:36:04;;;;;;;4.83;2.60;;;17.50;44.80;;;;;;5004772;28;20453;-81
2022/02/24 05:38:32;;;;;;;5.20;2.50;;;17.50;45.40;;;;;;5004357;28;20504;-82
2022/02/24 05:41:00;;;;;;;4.40;2.30;;;17.60;44.90;;;;;;5005115;28;20507;-81
2022/02/24 05:43:28;;;;;;;2.90;2.70;;;17.60;44.80;;;;;;5003597;28;20476;-82
2022/02/24 05:45:56;;;;;;;5.40;2.70;;;17.50;44.90;;;;;;5001677;28;20473;-82
2022/02/24 05:48:25;;;;;;;6.33;2.40;;;17.60;45.10;;;;;;5002565;28;20454;-81
2022/02/24 05:50:53;;;;;;;3.27;2.43;;;17.60;45.00;;;;;;5004119;28;20483;-83
2022/02/24 05:53:21;;;;;;;4.97;2.90;;;17.50;44.90;;;;;;5005504;28;20449;-82
2022/02/24 05:55:49;;;;;;;6.57;2.80;;;17.50;44.80;;;;;;5009264;28;20469;-82
2022/02/24 05:58:17;;;;;;;6.00;3.00;;;17.50;44.80;;;;;;5008264;28;20492;-82
2022/02/24 06:00:48;;;;;;;3.77;2.80;;;17.50;44.80;;;;;;5002131;28;20507;-82
2022/02/24 06:03:15;;;;;;;4.60;2.67;;;17.50;45.00;;;;;;4995606;28;20466;-82
2022/02/24 06:05:46;;;;;;;4.13;2.57;;;17.50;44.90;;;;;;5003052;28;20445;-82
2022/02/24 06:08:13;;;;;;;9.63;2.50;;;17.50;44.90;;;;;;5003752;28;20426;-82
2022/02/24 06:10:41;;;;;;;5.80;3.00;;;17.50;44.90;;;;;;5003571;28;20448;-82
2022/02/24 06:13:09;;;;;;;9.40;3.07;;;17.50;45.00;;;;;;5003021;28;20452;-82
2022/02/24 06:15:37;;;;;;;7.47;2.60;;;17.50;45.10;;;;;;5003429;28;20468;-82
2022/02/24 06:18:08;;;;;;;11.50;3.37;;;17.50;45.10;;;;;;5003569;28;20501;-82
2022/02/24 06:20:36;;;;;;;4.10;2.73;;;17.50;45.10;;;;;;4999433;28;20480;-82
2022/02/24 06:23:06;;;;;;;5.93;3.13;;;17.40;45.00;;;;;;5000236;28;20503;-81
2022/02/24 06:25:33;;;;;;;4.90;2.87;;;17.40;45.70;;;;;;4999365;28;20465;-81
2022/02/24 06:28:01;;;;;;;8.50;3.03;;;17.40;45.10;;;;;;4999790;28;20421;-81
2022/02/24 06:30:29;;;;;;;6.60;2.90;;;17.50;45.20;;;;;;5001084;28;20453;-82
2022/02/24 06:32:57;;;;;;;7.60;3.10;;;17.50;45.20;;;;;;4997493;28;20453;-82
2022/02/24 06:35:25;;;;;;;4.70;3.03;;;17.50;45.10;;;;;;5000673;28;20457;-83
2022/02/24 06:37:53;;;;;;;4.13;2.43;;;17.40;45.10;;;;;;4999726;28;20441;-81
2022/02/24 06:40:22;;;;;;;5.70;3.17;;;17.40;45.20;;;;;;4998809;28;20448;-82
2022/02/24 06:42:50;;;;;;;14.97;3.47;;;17.40;45.20;;;;;;4998848;28;20497;-81
2022/02/24 06:45:18;;;;;;;4.63;2.80;;;17.40;45.20;;;;;;4999566;28;20496;-81
2022/02/24 06:47:46;;;;;;;4.77;3.00;;;17.50;45.20;;;;;;4998716;28;20496;-81
2022/02/24 06:50:14;;;;;;;3.57;2.70;;;17.50;45.30;;;;;;5000077;28;20513;-81
2022/02/24 06:52:42;;;;;;;5.47;2.87;;;17.50;45.20;;;;;;4998909;28;20454;-82
2022/02/24 06:55:10;;;;;;;5.60;3.23;;;17.40;45.20;;;;;;4999714;28;20454;-81
2022/02/24 06:57:39;;;;;;;5.23;2.90;;;17.40;45.10;;;;;;5001147;28;20956;-81
2022/02/24 07:00:08;;;;;;;3.73;2.63;;;17.40;45.20;;;;;;5001306;28;20477;-81
2022/02/24 07:02:36;;;;;;;6.40;3.10;;;17.40;45.30;;;;;;5000847;28;20537;-82
2022/02/24 07:05:05;;;;;;;6.53;3.10;;;17.40;45.40;;;;;;5001344;28;20465;-81
2022/02/24 07:07:34;;;;;;;14.70;3.10;;;17.40;45.40;;;;;;5001472;28;20465;-81
2022/02/24 07:10:04;;;;;;;3.93;2.50;;;17.40;45.40;;;;;;5001517;28;20475;-82
2022/02/24 07:12:32;;;;;;;9.40;3.23;;;17.40;45.20;;;;;;5003713;28;20433;-82
2022/02/24 07:15:01;;;;;;;4.57;2.87;;;17.40;45.40;;;;;;5003966;28;20461;-82
2022/02/24 07:17:29;;;;;;;3.43;2.93;;;17.40;45.30;;;;;;5004408;28;20437;-82
2022/02/24 07:19:57;;;;;;;4.30;2.77;;;17.40;45.40;;;;;;5004373;28;20500;-82
2022/02/24 07:22:25;;;;;;;5.10;3.07;;;17.40;46.00;;;;;;5003508;28;20456;-82
2022/02/24 07:24:53;;;;;;;4.77;3.00;;;17.40;45.30;;;;;;5001428;28;20477;-82
2022/02/24 07:27:21;;;;;;;6.40;3.00;;;17.40;45.40;;;;;;5002303;28;20449;-82
2022/02/24 07:29:49;;;;;;;4.37;2.43;;;17.40;45.30;;;;;;5002157;28;20441;-82
2022/02/24 07:32:18;;;;;;;7.13;3.20;;;17.40;45.30;;;;;;5001826;28;20473;-84
2022/02/24 07:34:46;;;;;;;4.63;2.80;;;17.40;45.40;;;;;;5001894;28;20549;-82
2022/02/24 07:37:15;;;;;;;8.03;3.00;;;17.40;45.20;;;;;;5002650;28;20429;-81
2022/02/24 07:39:43;;;;;;;6.20;3.40;;;17.40;45.30;;;;;;5000211;28;20473;-82
2022/02/24 07:42:13;;;;;;;7.40;3.27;;;17.40;45.20;;;;;;5001605;28;20488;-82
2022/02/24 07:44:41;;;;;;;5.20;2.87;;;17.40;45.30;;;;;;5000595;28;20441;-82
2022/02/24 07:47:09;;;;;;;5.40;2.80;;;17.50;45.20;;;;;;5001523;28;20452;-81
2022/02/24 07:49:38;;;;;;;4.43;2.50;;;17.50;45.20;;;;;;4997116;28;20480;-81
2022/02/24 07:52:07;;;;;;;5.87;2.60;;;17.50;45.10;;;;;;5001562;28;20433;-82
2022/02/24 07:54:34;;;;;;;6.63;3.10;;;17.50;45.00;;;;;;5000019;28;20448;-81
2022/02/24 07:57:02;;;;;;;5.37;2.87;;;17.60;45.10;;;;;;4998916;28;20453;-82
2022/02/24 07:59:30;;;;;;;5.13;2.90;;;17.60;44.90;;;;;;4998635;28;20508;-82
2022/02/24 08:02:02;;;;;;;6.67;3.40;;;17.60;44.90;;;;;;4999890;28;20476;-82
2022/02/24 08:04:31;;;;;;;6.47;3.23;;;17.70;45.00;;;;;;4999395;28;20868;-81
2022/02/24 08:07:00;;;;;;;4.53;2.90;;;17.70;44.80;;;;;;4998534;28;20453;-82
2022/02/24 08:09:28;;;;;;;8.30;3.00;;;17.80;44.70;;;;;;4999351;28;20504;-82
2022/02/24 08:14:41;;;;;;;4.57;2.77;;;17.90;44.70;;;;;;4998994;28;20453;-81
2022/02/24 08:17:09;;;;;;;8.67;3.30;;;17.90;44.60;;;;;;5000221;28;20499;-82
2022/02/24 08:19:37;;;;;;;4.70;2.47;;;17.90;44.60;;;;;;4999809;28;20469;-81
2022/02/24 08:22:06;;;;;;;5.40;2.77;;;18.00;44.60;;;;;;5000558;28;20523;-82
2022/02/24 08:24:35;;;;;;;7.37;3.43;;;18.00;44.40;;;;;;5000490;28;20445;-81
2022/02/24 08:27:03;;;;;;;6.67;2.30;;;18.10;44.40;;;;;;4999969;28;20495;-82
2022/02/24 08:29:31;;;;;;;6.43;2.53;;;18.20;44.50;;;;;;4998725;28;20473;-82
2022/02/24 08:31:59;;;;;;;10.83;2.87;;;18.20;44.30;;;;;;4999298;28;20492;-82
2022/02/24 08:34:26;;;;;;;9.03;3.00;;;18.40;44.40;;;;;;5000266;28;20497;-83
2022/02/24 08:36:55;;;;;;;4.83;2.60;;;18.50;44.20;;;;;;5000253;28;20468;-81
2022/02/24 08:39:24;;;;;;;8.17;2.93;;;18.60;43.90;;;;;;5000962;28;20477;-82
2022/02/24 08:41:52;;;;;;;4.47;2.97;;;18.70;43.90;;;;;;5003410;28;20449;-81
2022/02/24 08:44:20;;;;;;;7.23;2.67;;;18.80;43.60;;;;;;5002275;28;20461;-81
2022/02/24 08:46:48;;;;;;;3.37;2.30;;;19.10;43.60;;;;;;5000619;28;20485;-81
2022/02/24 08:49:16;;;;;;;3.57;2.27;;;19.30;43.10;;;;;;5001383;28;20437;-81
2022/02/24 08:51:43;;;;;;;6.27;3.00;;;19.60;42.90;;;;;;4999242;28;20500;-80
2022/02/24 08:54:14;;;;;;;9.23;3.10;;;19.70;43.00;;;;;;4999910;28;20429;-82
2022/02/24 08:56:44;;;;;;;5.10;2.73;;;19.80;42.60;;;;;;4998525;28;20465;-81
2022/02/24 08:59:12;;;;;;;8.77;3.03;;;19.90;42.90;;;;;;4998706;28;20444;-81
2022/02/24 09:01:41;;;;;;;5.40;2.80;;;19.90;42.80;;;;;;4998005;28;20457;-81
2022/02/24 09:04:09;;;;;;;6.00;2.60;;;20.00;43.00;;;;;;4991523;28;20476;-80
2022/02/24 09:06:37;;;;;;;8.73;3.07;;;20.00;43.20;;;;;;4998374;28;20476;-81
2022/02/24 09:09:05;;;;;;;5.50;2.87;;;19.90;43.60;;;;;;4998970;28;20499;-81
2022/02/24 09:11:34;;;;;;;5.97;2.70;;;19.80;44.00;;;;;;4997892;28;20445;-81
2022/02/24 09:14:03;;;;;;;5.33;2.50;;;19.80;44.20;;;;;;4999352;28;20464;-81
2022/02/24 09:16:31;;;;;;;5.83;2.50;;;20.00;44.00;;;;;;4999509;28;20472;-81
2022/02/24 09:18:59;;;;;;;6.27;2.90;;;20.00;44.30;;;;;;5001328;28;20533;-81
2022/02/24 09:21:27;;;;;;;5.13;2.67;;;20.10;44.30;;;;;;5002246;28;20468;-81
2022/02/24 09:23:55;;;;;;;5.60;2.83;;;20.20;44.50;;;;;;5010122;28;20441;-82
2022/02/24 09:26:23;;;;;;;4.90;2.37;;;20.40;44.50;;;;;;5009731;28;20473;-81
2022/02/24 09:28:50;;;;;;;6.13;2.90;;;20.40;44.50;;;;;;5009994;28;20490;-81
2022/02/24 09:31:21;;;;;;;5.97;2.77;;;20.60;44.50;;;;;;5011025;28;20429;-82
2022/02/24 09:33:49;;;;;;;7.40;2.57;;;20.70;44.40;;;;;;5008694;28;20462;-82
2022/02/24 09:36:17;;;;;;;5.17;2.50;;;20.90;44.40;;;;;;5010409;28;20465;-82
2022/02/24 09:38:45;;;;;;;5.47;2.20;;;21.00;44.30;;;;;;5010726;28;20434;-82
2022/02/24 09:41:13;;;;;;;5.57;2.87;;;21.00;44.30;;;;;;5006258;28;20488;-82
2022/02/24 09:43:44;;;;;;;4.00;2.43;;;21.00;44.20;;;;;;5010592;28;20473;-82
2022/02/24 09:46:16;;;;;;;3.47;2.30;;;21.00;43.90;;;;;;5010852;28;20520;-82
2022/02/24 09:48:46;;;;;;;4.10;2.60;;;21.10;43.90;;;;;;5011477;28;20433;-82
2022/02/24 09:51:15;;;;;;;5.07;2.40;;;21.10;43.60;;;;;;5009641;28;20452;-82
2022/02/24 09:53:44;;;;;;;6.37;2.90;;;21.20;43.30;;;;;;5011085;28;20472;-82
2022/02/24 09:56:17;;;;;;;6.87;2.83;;;21.10;43.30;;;;;;5010194;28;20445;-82
2022/02/24 09:58:45;;;;;;;4.53;2.40;;;21.20;43.20;;;;;;5011141;28;20465;-82
2022/02/24 10:01:14;;;;;;;4.07;2.50;;;21.40;43.20;;;;;;5010007;28;20453;-82
2022/02/24 10:03:44;;;;;;;3.90;2.40;;;21.50;43.00;;;;;;5009816;28;20455;-82
2022/02/24 10:06:14;;;;;;;3.10;2.50;;;21.60;43.00;;;;;;5007424;28;20458;-82
2022/02/24 10:08:43;;;;;;;4.63;2.70;;;21.80;42.50;;;;;;5005647;28;20461;-82
2022/02/24 10:11:18;;;;;;;11.10;3.70;;;21.90;42.60;;;;;;5006759;28;20488;-82
2022/02/24 10:14:04;;;;;;;4.10;2.40;;;21.80;42.60;;;;;;5006741;28;20411;-82
2022/02/24 10:16:34;;;;;;;4.63;2.47;;;21.80;43.00;;;;;;5006689;28;20440;-82
2022/02/24 10:19:11;;;;;;;5.47;2.23;;;22.00;43.00;;;;;;5006326;28;20441;-82
2022/02/24 10:21:40;;;;;;;7.67;3.20;;;22.00;43.20;;;;;;5005461;28;20469;-81
2022/02/24 10:24:22;;;;;;;11.03;3.00;;;22.00;43.10;;;;;;5006028;28;20458;-82
2022/02/24 10:26:51;;;;;;;9.40;2.40;;;21.80;43.40;;;;;;5006195;28;20551;-81
2022/02/24 10:29:22;;;;;;;5.63;2.87;;;22.00;43.30;;;;;;5007767;28;20461;-82
2022/02/24 10:31:53;;;;;;;4.77;3.00;;;22.10;43.20;;;;;;5008802;28;20422;-82
2022/02/24 10:34:21;;;;;;;3.87;2.27;;;22.10;43.30;;;;;;5010851;28;20465;-81
2022/02/24 10:36:50;;;;;;;3.83;2.43;;;22.10;43.10;;;;;;5012014;28;20488;-83
2022/02/24 10:39:21;;;;;;;3.27;2.03;;;22.10;43.00;;;;;;5006314;28;20480;-82
2022/02/24 10:41:50;;;;;;;3.83;2.50;;;22.30;42.40;;;;;;5006182;28;20480;-82
2022/02/24 10:44:19;;;;;;;7.03;2.47;;;22.30;42.40;;;;;;5004299;28;20433;-82
2022/02/24 10:46:48;;;;;;;6.63;2.60;;;22.40;42.30;;;;;;5000786;28;20460;-82
2022/02/24 10:49:28;;;;;;;7.23;2.37;;;22.60;42.00;;;;;;5001192;28;20460;-82
2022/02/24 10:52:13;;;;;;;4.20;2.67;;;22.70;41.60;;;;;;5007177;28;20496;-82
2022/02/24 10:54:41;;;;;;;4.50;2.50;;;22.80;41.60;;;;;;5004465;28;20453;-83
2022/02/24 10:57:16;;;;;;;10.93;3.07;;;23.00;41.20;;;;;;5004425;28;20465;-81
2022/02/24 10:59:44;;;;;;;5.40;2.30;;;22.90;40.90;;;;;;5005341;28;20428;-81
2022/02/24 11:02:13;;;;;;;4.03;2.50;;;22.90;40.90;;;;;;5005656;28;20477;-81
2022/02/24 11:04:42;;;;;;;6.50;2.50;;;22.90;40.90;;;;;;5003157;28;20433;-81
2022/02/24 11:07:10;;;;;;;6.10;2.50;;;22.80;40.70;;;;;;5010006;28;20446;-81
2022/02/24 11:09:41;;;;;;;4.20;2.00;;;22.80;40.80;;;;;;5000110;28;20434;-81
2022/02/24 11:12:12;;;;;;;5.27;2.60;;;22.90;40.70;;;;;;4995894;28;20453;-82
2022/02/24 11:14:40;;;;;;;3.83;2.80;;;23.00;40.60;;;;;;4997270;28;20440;-79
2022/02/24 11:17:11;;;;;;;5.37;2.30;;;22.90;40.30;;;;;;4997914;28;20477;-81
2022/02/24 11:19:40;;;;;;;2.40;2.20;;;23.00;40.60;;;;;;4996369;28;20452;-80
2022/02/24 11:22:08;;;;;;;7.37;2.37;;;23.10;40.60;;;;;;4995890;28;20476;-82
2022/02/24 11:24:37;;;;;;;5.10;2.07;;;23.40;40.70;;;;;;4997679;28;20453;-80
2022/02/24 11:27:08;;;;;;;6.10;2.67;;;23.90;40.40;;;;;;4995455;28;20469;-82
2022/02/24 11:29:39;;;;;;;3.73;2.00;;;24.60;39.40;;;;;;5002443;28;20471;-82
2022/02/24 11:32:09;;;;;;;3.80;1.93;;;25.00;39.10;;;;;;5000869;28;20441;-82
2022/02/24 11:34:56;;;;;;;2.20;2.00;;;25.10;37.90;;;;;;4997062;28;20440;-83
2022/02/24 11:37:27;;;;;;;3.87;2.20;;;25.10;37.20;;;;;;4998061;28;20408;-82
2022/02/24 11:40:00;;;;;;;3.07;1.63;;;25.10;37.90;;;;;;4998597;28;20471;-83
2022/02/24 11:42:31;;;;;;;3.90;1.57;;;25.20;37.10;;;;;;4995549;28;20510;-82
2022/02/24 11:44:59;;;;;;;4.20;1.60;;;25.00;37.20;;;;;;4998386;28;20492;-83
2022/02/24 11:47:29;;;;;;;4.57;2.17;;;24.80;37.50;;;;;;4998463;28;20474;-82
2022/02/24 11:50:25;;;;;;;2.53;1.73;;;24.60;37.50;;;;;;4999142;28;20419;-82
2022/02/24 11:52:53;;;;;;;4.80;1.90;;;24.50;37.80;;;;;;4985876;28;20464;-82
2022/02/24 11:55:41;;;;;;;6.00;1.97;;;24.40;37.40;;;;;;4999691;28;20472;-82
2022/02/24 11:58:35;;;;;;;6.67;2.30;;;24.10;37.70;;;;;;4998032;28;20481;-82
2022/02/24 12:01:18;;;;;;;2.23;1.70;;;25.50;39.00;;;;;;5000074;28;20521;-82
2022/02/24 12:04:10;;;;;;;3.23;1.60;;;26.90;35.80;;;;;;4996843;28;20415;-82
2022/02/24 12:06:44;;;;;;;2.17;1.60;;;26.60;34.40;;;;;;4995335;28;20440;-82
2022/02/24 12:09:34;;;;;;;2.43;1.40;;;26.20;34.00;;;;;;4997006;28;20412;-82
2022/02/24 12:12:08;;;;;;;2.63;1.50;;;25.70;35.10;;;;;;4998273;28;20433;-82
2022/02/24 12:14:44;;;;;;;3.70;1.83;;;25.70;35.50;;;;;;5000229;28;20445;-83
2022/02/24 12:17:19;;;;;;;3.10;1.90;;;25.60;35.20;;;;;;4998381;28;20438;-82
2022/02/24 12:19:48;;;;;;;3.27;1.67;;;25.40;35.30;;;;;;5001225;28;20466;-82
2022/02/24 12:22:32;;;;;;;4.50;1.60;;;25.20;35.80;;;;;;5002633;28;20454;-82
2022/02/24 12:25:08;;;;;;;2.70;1.50;;;25.00;36.10;;;;;;4994891;28;20465;-82
2022/02/24 12:27:38;;;;;;;2.33;1.70;;;25.00;36.40;;;;;;4999549;28;20419;-82
2022/02/24 12:30:21;;;;;;;2.50;1.53;;;24.80;36.10;;;;;;5000803;28;20434;-82
2022/02/24 12:32:54;;;;;;;3.93;1.67;;;24.40;36.50;;;;;;4997591;28;20453;-82
2022/02/24 12:35:22;;;;;;;3.47;1.83;;;24.20;36.70;;;;;;4999075;28;20484;-82
2022/02/24 12:37:51;;;;;;;3.97;1.57;;;24.00;37.10;;;;;;4998494;28;20446;-83
2022/02/24 12:40:27;;;;;;;4.23;1.80;;;24.10;37.70;;;;;;4999426;28;20404;-80
2022/02/24 12:42:55;;;;;;;1.63;1.53;;;25.30;37.90;;;;;;4996991;28;20467;-82
2022/02/24 12:45:24;;;;;;;2.33;1.47;;;26.90;36.20;;;;;;4996705;28;20473;-82
2022/02/24 12:47:53;;;;;;;2.60;1.40;;;28.50;33.90;;;;;;4994671;28;20469;-83
2022/02/24 12:50:22;;;;;;;2.10;1.43;;;29.80;31.80;;;;;;4997408;28;20464;-82
2022/02/24 12:52:50;;;;;;;2.23;1.30;;;30.60;30.20;;;;;;4992555;28;20445;-82
2022/02/24 12:55:18;;;;;;;1.67;1.33;;;30.80;30.00;;;;;;5001103;28;20457;-82
2022/02/24 12:57:46;;;;;;;2.60;1.50;;;30.50;29.50;;;;;;5001385;28;20456;-82
2022/02/24 13:00:15;;;;;;;1.30;1.20;;;30.10;29.40;;;;;;5000929;28;20475;-84